Time;durP1;ratioP1;P1;durP2;ratioP2;P2;SDS_P1;SDS_P2;PMS_P1;PMS_P2;Temp;Humidity;BMP_temperature;BMP_pressure;BME280_temperature;BME280_humidity;BME280_pressure;Samples;Min_cycle;Max_cycle;Signal;HPM_P1;HPM_P2
2022/02/18 00:01:40;;;;;;;1.48;0.82;;;;;;;7.72;31.27;92262.97;4968397;28;20084;-89
2022/02/18 00:04:14;;;;;;;2.47;1.00;;;;;;;7.64;32.08;92260.19;4980426;28;20141;-89
2022/02/18 00:07:09;;;;;;;;;;;;;;;;;;;;;
2022/02/18 00:09:48;;;;;;;1.50;0.77;;;;;;;7.45;31.86;92271.25;4978108;28;20165;-89
2022/02/18 00:12:19;;;;;;;0.95;0.60;;;;;;;7.42;31.98;92265.81;4976009;28;20034;-89
2022/02/18 00:15:10;;;;;;;0.77;0.60;;;;;;;7.34;31.71;92258.56;4945425;28;20047;-89
2022/02/18 00:17:52;;;;;;;1.77;0.95;;;;;;;7.57;31.86;92296.97;4960877;28;20030;-89
2022/02/18 00:20:51;;;;;;;1.77;0.80;;;;;;;7.28;31.70;92253.41;4975776;28;20051;-90
2022/02/18 00:23:42;;;;;;;1.75;0.90;;;;;;;7.42;31.53;92282.19;4978574;28;20093;-89
2022/02/18 00:26:39;;;;;;;2.20;0.80;;;;;;;7.23;32.00;92258.66;4961697;28;20545;-89
2022/02/18 00:29:25;;;;;;;1.08;0.60;;;;;;;7.48;32.08;92301.19;4958232;28;20286;-89
2022/02/18 00:32:09;;;;;;;1.55;0.75;;;;;;;7.21;32.00;92255.53;4978400;28;20050;-89
2022/02/18 00:34:50;;;;;;;1.55;0.73;;;;;;;7.16;31.69;92258.19;4964110;28;20472;-89
2022/02/18 00:37:24;;;;;;;0.77;0.60;;;;;;;7.36;31.73;92293.69;4982356;28;20040;-89
2022/02/18 00:40:15;;;;;;;2.05;0.57;;;;;;;7.38;32.20;92296.03;4975911;28;20506;-90
2022/02/18 00:43:04;;;;;;;1.00;0.77;;;;;;;7.22;32.15;92277.13;4960134;28;20049;-88
2022/02/18 00:45:49;;;;;;;1.95;0.75;;;;;;;7.43;31.90;92309.81;4960211;28;20539;-89
2022/02/18 00:48:23;;;;;;;1.00;0.60;;;;;;;6.96;32.02;92234.84;4974439;28;20447;-88
2022/02/18 00:51:11;;;;;;;1.63;0.88;;;;;;;7.38;32.02;92298.66;4956233;28;20047;-89
2022/02/18 00:53:47;;;;;;;0.93;0.68;;;;;;;6.97;32.40;92239.78;4974812;28;20046;-88
2022/02/18 00:56:17;;;;;;;1.33;0.60;;;;;;;6.96;32.27;92240.06;4992384;28;20503;-89
2022/02/18 00:58:50;;;;;;;1.45;0.63;;;;;;;6.92;32.07;92231.25;4960068;28;20090;-89
2022/02/18 01:01:56;;;;;;;0.98;0.65;;;;;;;6.85;32.07;92227.13;4939784;28;20051;-88
2022/02/18 01:05:03;;;;;;;1.05;0.60;;;;;;;6.92;32.05;92241.66;4991897;28;20037;-89
2022/02/18 01:08:04;;;;;;;1.27;0.70;;;;;;;7.11;31.55;92263.41;4972200;28;20039;-89
2022/02/18 01:11:18;;;;;;;1.52;0.82;;;;;;;6.90;31.86;92235.94;4957246;28;20510;-90
2022/02/18 01:14:04;;;;;;;2.13;0.70;;;;;;;6.93;32.50;92251.00;4985607;28;20069;-88
2022/02/18 01:16:52;;;;;;;;;;;;;;;;;;;;;
2022/02/18 01:19:34;;;;;;;0.73;0.60;;;;;;;6.99;32.35;92265.56;4980065;28;20034;-89
2022/02/18 01:22:28;;;;;;;0.50;0.50;;;;;;;6.84;31.65;92242.97;4992431;28;20066;-89
2022/02/18 01:25:00;;;;;;;0.95;0.60;;;;;;;6.93;32.21;92270.00;4975573;28;20697;-88
2022/02/18 01:27:55;;;;;;;2.83;0.82;;;;;;;6.99;33.07;92286.38;4990972;28;20038;-88
2022/02/18 01:30:37;;;;;;;;;;;;;;;;;;;;;
2022/02/18 01:33:34;;;;;;;1.25;0.70;;;;;;;6.87;33.76;92297.88;4995149;28;20030;-88
2022/02/18 01:36:27;;;;;;;2.35;0.80;;;;;;;6.50;34.04;92246.25;4968828;28;20030;-90
2022/02/18 01:39:21;;;;;;;;;;;;;;;;;;;;;
2022/02/18 01:41:55;;;;;;;1.42;0.85;;;;;;;6.36;33.65;92243.47;4964955;28;20030;-90
2022/02/18 01:44:51;;;;;;;0.50;0.50;;;;;;;6.52;33.39;92285.00;4979203;28;20488;-90
2022/02/18 01:47:26;;;;;;;1.60;0.80;;;;;;;6.34;32.83;92245.53;4953073;28;20113;-90
2022/02/18 01:50:11;;;;;;;1.38;0.82;;;;;;;6.36;33.39;92246.06;4979416;28;20034;-90
2022/02/18 01:53:01;;;;;;;;;;;;;;;;;;;;;
2022/02/18 01:55:47;;;;;;;0.63;0.60;;;;;;;6.33;33.27;92244.00;4977124;28;20054;-90
2022/02/18 01:58:36;;;;;;;3.15;0.70;;;;;;;6.46;33.28;92279.84;4961253;28;20073;-90
2022/02/18 02:01:16;;;;;;;1.33;0.70;;;;;;;6.31;33.19;92258.31;4994914;28;20046;-89
2022/02/18 02:03:47;;;;;;;1.10;0.70;;;;;;;6.45;33.76;92283.47;4960033;28;20035;-90
2022/02/18 02:06:49;;;;;;;1.80;0.88;;;;;;;6.22;33.72;92250.28;4943986;28;20039;-90
2022/02/18 02:09:37;;;;;;;1.15;0.80;;;;;;;6.12;33.65;92234.69;4924676;29;20035;-90
2022/02/18 02:12:27;;;;;;;2.80;1.10;;;;;;;6.13;32.75;92226.66;4955946;28;20066;-90
2022/02/18 02:15:25;;;;;;;3.30;0.82;;;;;;;6.14;33.34;92219.63;4940935;28;20039;-89
2022/02/18 02:18:06;;;;;;;0.88;0.57;;;;;;;6.09;33.41;92230.81;4959107;28;20042;-90
2022/02/18 02:21:10;;;;;;;;;;;;;;;;;;;;;
2022/02/18 02:26:54;;;;;;;;;;;;;;;6.51;33.43;92280.84;4955358;28;20030;-89
2022/02/18 02:29:42;;;;;;;;;;;;;;;;;;;;;
2022/02/18 02:32:35;;;;;;;1.80;0.73;;;;;;;6.00;34.21;92214.97;4933986;28;20042;-90
2022/02/18 02:35:23;;;;;;;;;;;;;;;;;;;;;
2022/02/18 02:38:06;;;;;;;0.60;0.60;;;;;;;5.90;34.42;92202.00;4972002;28;20125;-89
2022/02/18 02:40:42;;;;;;;1.75;0.80;;;;;;;6.05;34.72;92230.53;4944675;29;20150;-89
2022/02/18 02:46:25;;;;;;;1.70;0.70;;;;;;;5.97;33.66;92210.31;4951977;28;20051;-89
2022/02/18 02:51:55;;;;;;;3.00;0.70;;;;;;;5.88;34.16;92204.06;4960003;28;20074;-89
2022/02/18 02:55:03;;;;;;;;;;;;;;;;;;;;;
2022/02/18 02:58:01;;;;;;;1.23;0.70;;;;;;;6.16;33.13;92239.09;4973964;28;20038;-89
2022/02/18 03:00:54;;;;;;;1.10;0.77;;;;;;;6.29;31.43;92227.38;4941725;28;20039;-89
2022/02/18 03:04:05;;;;;;;1.17;0.77;;;;;;;6.24;31.89;92209.19;4939983;29;20508;-89
2022/02/18 03:06:43;;;;;;;;;;;;;;;;;;;;;
2022/02/18 03:09:27;;;;;;;0.90;0.60;;;;;;;6.24;31.72;92201.41;4954305;28;20070;-89
2022/02/18 03:12:46;;;;;;;0.40;0.40;;;;;;;6.64;31.23;92256.88;4948671;28;20043;-90
2022/02/18 03:15:26;;;;;;;0.57;0.57;;;;;;;6.42;31.42;92220.84;4928860;28;20047;-89
2022/02/18 03:18:34;;;;;;;;;;;;;;;;;;;;;
2022/02/18 03:21:20;;;;;;;0.82;0.60;;;;;;;6.56;34.39;92271.22;4957802;28;20117;-89
2022/02/18 03:24:06;;;;;;;0.77;0.60;;;;;;;6.47;34.34;92280.59;4947721;28;20492;-90
2022/02/18 03:27:19;;;;;;;1.10;0.60;;;;;;;6.11;34.45;92257.31;4956376;28;20039;-90
2022/02/18 03:29:57;;;;;;;2.58;0.77;;;;;;;5.89;34.11;92234.19;4963608;28;20050;-89
2022/02/18 03:33:01;;;;;;;;;;;;;;;;;;;;;
2022/02/18 03:35:39;;;;;;;2.25;0.85;;;;;;;5.89;33.50;92226.41;4944148;28;20055;-89
2022/02/18 03:38:36;;;;;;;1.73;0.75;;;;;;;5.88;33.97;92235.25;4942319;28;20103;-90
2022/02/18 03:44:16;;;;;;;1.50;0.60;;;;;;;5.78;34.34;92245.66;4930108;28;20757;-89
2022/02/18 03:47:25;;;;;;;0.95;0.60;;;;;;;5.73;34.41;92241.22;4959585;28;20057;-89
2022/02/18 03:50:10;;;;;;;3.20;0.80;;;;;;;5.91;34.28;92286.69;4949187;28;20496;-91
2022/02/18 03:52:59;;;;;;;2.97;0.80;;;;;;;5.96;34.29;92304.88;4957311;28;20054;-90
2022/02/18 03:55:49;;;;;;;2.17;0.80;;;;;;;5.67;34.68;92264.88;4973024;28;20034;-89
2022/02/18 03:58:24;;;;;;;1.15;0.80;;;;;;;5.61;35.72;92264.13;4929832;28;20034;-89
2022/02/18 04:01:07;;;;;;;1.38;0.90;;;;;;;5.73;36.26;92290.59;4955960;28;20038;-90
2022/02/18 04:03:40;;;;;;;2.38;1.05;;;;;;;5.82;35.49;92298.63;4946188;28;20117;-90
2022/02/18 04:06:30;;;;;;;1.02;0.65;;;;;;;5.57;34.32;92256.06;4973278;28;20125;-91
2022/02/18 04:09:44;;;;;;;;;;;;;;;;;;;;;
2022/02/18 04:12:21;;;;;;;4.53;1.55;;;;;;;5.51;35.54;92256.31;4944230;28;20062;-90
2022/02/18 04:15:33;;;;;;;3.05;1.30;;;;;;;5.52;35.81;92263.84;4956579;28;20046;-90
2022/02/18 04:18:21;;;;;;;1.83;1.00;;;;;;;5.57;35.77;92268.25;4980040;28;20050;-89
2022/02/18 04:21:43;;;;;;;;;;;;;;;;;;;;;
2022/02/18 04:24:55;;;;;;;1.05;0.73;;;;;;;5.29;35.39;92259.16;4984235;28;20046;-90
2022/02/18 04:27:37;;;;;;;1.05;0.60;;;;;;;5.21;35.75;92256.03;4976159;28;20040;-91
2022/02/18 04:30:11;;;;;;;2.15;0.80;;;;;;;5.24;35.47;92264.34;4962011;28;20034;-90
2022/02/18 04:32:52;;;;;;;1.85;0.60;;;;;;;5.28;34.77;92262.81;4964135;28;20042;-90
2022/02/18 04:35:49;;;;;;;1.48;0.73;;;;;;;5.33;34.89;92265.41;4964041;28;20053;-89
2022/02/18 04:38:48;;;;;;;;;;;;;;;;;;;;;
2022/02/18 04:41:19;;;;;;;0.75;0.63;;;;;;;5.12;35.77;92254.22;4986549;28;20117;-90
2022/02/18 04:44:13;;;;;;;0.77;0.63;;;;;;;5.49;35.81;92308.50;4974088;28;20034;-90
2022/02/18 04:46:44;;;;;;;1.15;0.70;;;;;;;5.21;35.75;92269.00;4965929;28;20054;-90
2022/02/18 04:49:26;;;;;;;1.30;0.77;;;;;;;5.63;35.39;92325.13;4958508;28;20046;-89
2022/02/18 04:52:17;;;;;;;1.35;0.60;;;;;;;5.50;34.67;92306.69;4957835;28;20047;-89
2022/02/18 04:54:55;;;;;;;0.70;0.70;;;;;;;5.54;35.19;92308.50;4960403;28;20065;-90
2022/02/18 04:57:46;;;;;;;0.68;0.68;;;;;;;5.49;35.43;92292.91;4958968;28;20038;-89
2022/02/18 05:00:27;;;;;;;1.00;0.70;;;;;;;5.20;35.51;92256.28;4975612;28;20043;-90
2022/02/18 05:02:58;;;;;;;1.42;0.85;;;;;;;5.36;35.69;92285.66;4959213;28;20046;-90
2022/02/18 05:08:42;;;;;;;1.38;0.73;;;;;;;5.05;36.67;92249.28;4944449;28;20043;-89
2022/02/18 05:11:40;;;;;;;1.10;0.75;;;;;;;5.30;37.22;92284.88;4960185;28;20069;-90
2022/02/18 05:14:34;;;;;;;1.05;0.80;;;;;;;5.00;37.39;92241.50;4930440;28;20035;-93
2022/02/18 05:17:25;;;;;;;1.27;0.70;;;;;;;5.28;37.57;92293.94;4935398;28;20117;-89
2022/02/18 05:20:09;;;;;;;1.40;0.80;;;;;;;5.05;37.01;92267.44;4930125;28;20286;-90
2022/02/18 05:22:46;;;;;;;1.27;0.75;;;;;;;4.87;37.35;92236.81;4910182;29;20122;-90
2022/02/18 05:25:42;;;;;;;1.92;0.70;;;;;;;4.82;37.12;92244.56;4938847;28;20046;-91
2022/02/18 05:28:19;;;;;;;1.23;0.73;;;;;;;5.16;37.06;92307.94;4953049;28;20062;-87
2022/02/18 05:30:52;;;;;;;0.85;0.65;;;;;;;4.93;36.51;92256.50;4937280;28;20041;-89
2022/02/18 05:33:26;;;;;;;0.50;0.50;;;;;;;4.85;36.94;92254.44;4953693;28;20043;-87
2022/02/18 05:36:07;;;;;;;;;;;;;;;;;;;;;
2022/02/18 05:38:51;;;;;;;2.25;1.55;;;;;;;4.88;37.32;92264.28;4956667;28;20047;-88
2022/02/18 05:41:19;;;;;;;0.98;0.63;;;;;;;4.77;36.63;92259.09;4950116;28;20049;-87
2022/02/18 05:43:58;;;;;;;3.33;0.82;;;;;;;5.07;36.49;92295.75;4950881;28;20101;-87
2022/02/18 05:46:29;;;;;;;1.90;1.00;;;;;;;4.79;36.63;92259.59;4970394;28;20449;-87
2022/02/18 05:49:24;;;;;;;;;;;;;;;;;;;;;
2022/02/18 05:52:14;;;;;;;;;;;;;;;;;;;;;
2022/02/18 05:55:02;;;;;;;1.67;0.90;;;;;;;5.04;37.79;92333.31;4969363;28;20058;-89
2022/02/18 05:57:40;;;;;;;2.80;0.88;;;;;;;4.61;37.73;92280.81;4950334;28;20555;-89
2022/02/18 06:00:34;;;;;;;3.78;0.82;;;;;;;4.62;37.70;92292.75;4970360;28;20043;-88
2022/02/18 06:03:16;;;;;;;0.77;0.60;;;;;;;4.75;37.95;92323.41;4963039;28;20038;-86
2022/02/18 06:05:42;;;;;;;1.75;0.90;;;;;;;4.70;37.11;92320.75;4966579;28;20043;-85
2022/02/18 06:08:10;;;;;;;0.82;0.65;;;;;;;4.54;36.78;92291.41;4952828;28;20035;-86
2022/02/18 06:10:36;;;;;;;1.23;0.77;;;;;;;4.73;37.45;92315.09;4934805;28;20038;-85
2022/02/18 06:13:02;;;;;;;1.55;0.75;;;;;;;4.79;38.09;92332.19;4953749;28;20564;-85
2022/02/18 06:15:29;;;;;;;1.15;0.73;;;;;;;4.96;38.15;92359.78;4972305;28;20500;-86
2022/02/18 06:17:55;;;;;;;1.17;0.80;;;;;;;4.91;38.12;92355.34;4973243;28;20041;-86
2022/02/18 06:20:20;;;;;;;1.10;0.70;;;;;;;4.77;38.17;92341.28;4942135;28;20061;-85
2022/02/18 06:22:46;;;;;;;1.15;0.70;;;;;;;4.90;38.65;92371.16;4925314;28;20472;-87
2022/02/18 06:25:12;;;;;;;3.00;0.80;;;;;;;4.84;39.35;92356.59;4955328;28;20074;-85
2022/02/18 06:27:38;;;;;;;2.45;1.10;;;;;;;4.84;38.64;92361.78;4938708;28;20389;-85
2022/02/18 06:30:05;;;;;;;2.38;1.10;;;;;;;4.89;39.03;92378.16;4958466;28;20098;-85
2022/02/18 06:32:30;;;;;;;5.32;1.02;;;;;;;4.70;39.95;92354.47;4974179;28;20670;-85
2022/02/18 06:34:56;;;;;;;0.50;0.50;;;;;;;4.75;40.34;92385.63;4990917;28;20050;-85
2022/02/18 06:37:22;;;;;;;4.80;1.10;;;;;;;5.78;38.36;92386.69;4955938;28;20035;-87
2022/02/18 06:39:48;;;;;;;4.03;1.45;;;;;;;7.92;34.58;92363.69;4987564;28;20061;-86
2022/02/18 06:42:14;;;;;;;2.33;1.23;;;;;;;9.84;32.56;92372.59;4990053;28;20500;-86
2022/02/18 06:44:40;;;;;;;3.47;1.05;;;;;;;11.60;29.95;92371.88;4958806;28;20125;-87
2022/02/18 06:47:06;;;;;;;3.05;1.60;;;;;;;12.76;27.46;92352.94;4973751;28;20039;-86
2022/02/18 06:49:32;;;;;;;2.72;1.40;;;;;;;13.91;26.13;92366.88;4957641;28;20034;-86
2022/02/18 06:51:58;;;;;;;4.78;1.58;;;;;;;15.00;24.71;92373.72;4990599;28;20411;-86
2022/02/18 06:54:24;;;;;;;4.05;1.75;;;;;;;16.07;23.54;92360.44;4972803;28;20043;-88
2022/02/18 06:56:51;;;;;;;3.13;1.40;;;;;;;17.03;22.24;92365.63;4973383;28;20106;-88
2022/02/18 06:59:18;;;;;;;3.38;1.45;;;;;;;17.63;21.68;92339.47;4972755;28;20257;-86
2022/02/18 07:01:43;;;;;;;5.45;1.60;;;;;;;18.61;20.75;92346.41;4980095;28;20050;-87
2022/02/18 07:04:09;;;;;;;3.67;1.60;;;;;;;19.56;20.43;92359.75;4960368;28;20035;-87
2022/02/18 07:06:35;;;;;;;3.13;1.50;;;;;;;20.51;18.92;92358.72;4974489;28;20504;-87
2022/02/18 07:09:00;;;;;;;3.35;1.80;;;;;;;20.89;18.40;92363.25;4959813;28;20042;-87
2022/02/18 07:11:26;;;;;;;4.03;1.85;;;;;;;21.55;17.44;92364.00;4974704;28;20099;-87
2022/02/18 07:13:51;;;;;;;5.80;1.75;;;;;;;21.63;17.04;92367.53;4970278;28;20073;-87
2022/02/18 07:16:17;;;;;;;3.88;1.70;;;;;;;21.96;17.36;92363.44;4975411;28;20391;-87
2022/02/18 07:18:43;;;;;;;4.22;1.80;;;;;;;21.59;18.23;92388.00;4991988;28;20383;-89
2022/02/18 07:21:09;;;;;;;3.25;1.60;;;;;;;21.58;17.83;92370.50;4992814;28;20099;-86
2022/02/18 07:23:35;;;;;;;3.15;1.60;;;;;;;21.64;18.10;92401.06;4943328;28;20463;-86
2022/02/18 07:26:01;;;;;;;5.57;1.85;;;;;;;22.18;17.33;92397.25;4975514;28;20089;-86
2022/02/18 07:28:27;;;;;;;4.30;1.95;;;;;;;21.97;17.78;92396.94;4992767;28;20038;-86
2022/02/18 07:30:53;;;;;;;4.38;2.20;;;;;;;21.73;18.94;92392.78;4960491;28;20089;-86
2022/02/18 07:33:18;;;;;;;9.95;3.30;;;;;;;19.89;22.50;92396.56;4977068;28;20484;-88
2022/02/18 07:35:44;;;;;;;8.40;3.00;;;;;;;19.08;23.51;92422.66;4976252;28;20447;-89
2022/02/18 07:38:11;;;;;;;11.77;3.78;;;;;;;20.91;22.02;92432.84;4942958;28;20126;-86
2022/02/18 07:40:37;;;;;;;8.00;3.70;;;;;;;21.51;21.64;92429.00;4960347;28;20043;-87
2022/02/18 07:43:03;;;;;;;8.68;4.13;;;;;;;23.11;19.44;92416.31;4958068;28;20066;-86
2022/02/18 07:45:30;;;;;;;7.28;3.53;;;;;;;23.45;19.25;92418.94;4964812;28;20038;-85
2022/02/18 07:47:57;;;;;;;7.45;3.60;;;;;;;22.18;20.87;92436.50;4975408;28;20053;-87
2022/02/18 07:50:24;;;;;;;7.55;3.90;;;;;;;21.95;20.67;92431.19;4970347;28;20034;-88
2022/02/18 07:52:50;;;;;;;7.95;4.07;;;;;;;21.31;21.42;92425.56;4960386;28;20066;-86
2022/02/18 07:55:16;;;;;;;11.57;5.40;;;;;;;20.83;23.09;92423.19;4986426;28;20034;-85
2022/02/18 07:57:42;;;;;;;11.27;5.97;;;;;;;19.69;25.56;92416.22;4976463;28;20446;-85
2022/02/18 08:00:08;;;;;;;11.15;6.93;;;;;;;20.81;24.75;92425.44;4975315;28;20042;-88
2022/02/18 08:02:40;;;;;;;15.13;6.80;;;;;;;20.55;24.24;92408.19;4994375;28;20086;-85
2022/02/18 08:05:06;;;;;;;10.70;6.57;;;;;;;18.96;25.83;92428.00;4960014;28;20072;-87
2022/02/18 08:07:32;;;;;;;18.98;9.40;;;;;;;17.86;28.55;92427.19;4972471;28;20081;-87
2022/02/18 08:09:58;;;;;;;28.83;14.50;;;;;;;15.61;33.63;92440.16;4973868;28;20499;-86
2022/02/18 08:12:25;;;;;;;36.47;17.70;;;;;;;14.66;36.23;92428.06;4975243;28;20046;-87
2022/02/18 08:14:52;;;;;;;40.17;18.33;;;;;;;15.14;36.08;92450.75;4945346;28;20038;-86
2022/02/18 08:17:18;;;;;;;47.75;19.83;;;;;;;14.31;37.62;92446.47;4958385;28;20038;-86
2022/02/18 08:19:44;;;;;;;45.15;22.25;;;;;;;13.63;40.33;92469.72;4975649;28;20114;-86
2022/02/18 08:22:09;;;;;;;55.80;25.17;;;;;;;12.88;42.53;92474.00;4943363;28;20039;-88
2022/02/18 08:24:35;;;;;;;64.43;27.33;;;;;;;11.73;46.48;92478.59;4975124;28;20462;-85
2022/02/18 08:27:01;;;;;;;65.07;26.90;;;;;;;12.22;44.58;92427.19;4943658;28;20038;-86
2022/02/18 08:29:27;;;;;;;62.80;27.30;;;;;;;13.51;42.24;92435.38;4971747;28;20026;-86
2022/02/18 08:31:54;;;;;;;64.43;27.48;;;;;;;12.92;43.65;92443.41;4968002;28;20392;-86
2022/02/18 08:34:19;;;;;;;72.35;29.83;;;;;;;10.83;49.50;92462.41;4948571;28;20480;-86
2022/02/18 08:36:45;;;;;;;74.30;30.92;;;;;;;11.04;48.76;92434.78;4945482;28;20042;-86
2022/02/18 08:39:10;;;;;;;80.03;31.77;;;;;;;10.68;50.73;92444.34;4974959;28;20039;-88
2022/02/18 08:41:37;;;;;;;80.43;32.90;;;;;;;10.79;50.42;92451.72;4989061;28;20075;-86
2022/02/18 08:44:04;;;;;;;87.22;33.03;;;;;;;11.29;49.30;92461.59;4960379;28;20197;-85
2022/02/18 08:46:31;;;;;;;80.45;33.30;;;;;;;11.56;49.64;92444.31;4975359;28;20042;-86
2022/02/18 08:48:58;;;;;;;75.72;31.92;;;;;;;11.45;49.40;92460.22;4992237;28;20057;-87
2022/02/18 08:51:25;;;;;;;84.55;33.05;;;;;;;10.98;51.26;92470.00;4957967;28;20034;-86
2022/02/18 08:53:50;;;;;;;79.20;31.85;;;;;;;10.30;52.88;92442.56;4976057;28;20042;-86
2022/02/18 08:56:17;;;;;;;85.78;34.53;;;;;;;10.96;52.34;92448.53;4961388;28;20044;-85
2022/02/18 08:58:43;;;;;;;80.47;33.42;;;;;;;10.97;52.02;92471.06;4956489;28;20045;-85
2022/02/18 09:01:10;;;;;;;77.05;31.65;;;;;;;10.03;53.67;92456.25;4980918;28;20042;-85
2022/02/18 09:03:37;;;;;;;76.10;32.35;;;;;;;11.08;51.61;92471.66;4976079;28;20047;-86
2022/02/18 09:06:03;;;;;;;77.72;32.10;;;;;;;10.28;53.60;92470.03;4991130;28;20121;-89
2022/02/18 09:08:28;;;;;;;77.35;30.70;;;;;;;10.20;53.80;92463.63;4944060;28;20125;-86
2022/02/18 09:10:55;;;;;;;81.57;31.52;;;;;;;10.68;52.90;92488.84;4959916;28;20499;-87
2022/02/18 09:13:25;;;;;;;84.72;32.30;;;;;;;9.61;55.06;92442.16;4959357;28;20471;-85
2022/02/18 09:15:51;;;;;;;97.00;33.72;;;;;;;8.25;60.65;92496.16;4956472;28;20045;-85
2022/02/18 09:18:21;;;;;;;90.45;32.38;;;;;;;8.10;60.97;92476.94;4958148;28;20027;-85
2022/02/18 09:20:48;;;;;;;92.65;34.92;;;;;;;8.86;59.44;92508.75;4959589;28;20045;-85
2022/02/18 09:23:14;;;;;;;92.50;34.45;;;;;;;8.88;59.94;92518.94;4994983;28;20070;-85
2022/02/18 09:25:42;;;;;;;93.55;34.88;;;;;;;7.75;63.12;92490.97;4975505;28;20034;-86
2022/02/18 09:28:08;;;;;;;95.57;35.53;;;;;;;8.10;63.11;92510.06;4960000;28;20125;-85
2022/02/18 09:30:39;;;;;;;97.78;35.10;;;;;;;8.91;60.64;92518.38;4959269;28;20070;-86
2022/02/18 09:33:05;;;;;;;89.28;31.75;;;;;;;8.14;64.04;92517.06;4972707;28;20046;-85
2022/02/18 09:35:31;;;;;;;97.07;34.40;;;;;;;7.77;64.42;92506.31;4959190;28;20038;-85
2022/02/18 09:37:56;;;;;;;97.97;36.95;;;;;;;7.37;65.59;92480.16;4975758;28;20048;-85
2022/02/18 09:40:22;;;;;;;76.13;27.70;;;;;;;7.82;63.68;92493.28;4959164;28;20050;-85
2022/02/18 09:42:49;;;;;;;84.15;31.27;;;;;;;7.45;65.44;92484.84;4958379;28;20487;-85
2022/02/18 09:45:17;;;;;;;85.40;29.80;;;;;;;7.95;64.37;92500.50;4975210;28;20041;-85
2022/02/18 09:47:43;;;;;;;94.03;35.83;;;;;;;8.71;61.92;92482.78;4974896;28;20039;-85
2022/02/18 09:50:10;;;;;;;77.50;28.02;;;;;;;8.26;62.33;92505.53;4958945;28;20030;-85
2022/02/18 09:52:36;;;;;;;91.95;32.38;;;;;;;7.36;65.95;92512.44;4961645;28;20104;-85
2022/02/18 09:55:03;;;;;;;91.05;33.17;;;;;;;7.52;65.33;92518.41;4962485;28;20042;-87
2022/02/18 09:57:31;;;;;;;96.38;34.08;;;;;;;7.08;66.76;92500.81;4966219;28;20121;-86
2022/02/18 09:59:56;;;;;;;81.93;31.88;;;;;;;6.75;66.31;92479.50;4976612;28;20492;-86
2022/02/18 10:02:23;;;;;;;85.22;28.65;;;;;;;7.50;65.04;92455.38;4976327;28;20055;-87
2022/02/18 10:04:48;;;;;;;82.68;31.70;;;;;;;7.74;64.68;92512.06;4994977;28;20049;-87
2022/02/18 10:07:14;;;;;;;89.93;29.90;;;;;;;8.02;63.30;92519.22;4979448;28;20399;-86
2022/02/18 10:09:47;;;;;;;97.00;34.47;;;;;;;8.43;62.01;92503.34;4978684;28;20045;-86
2022/02/18 10:12:14;;;;;;;96.13;32.33;;;;;;;9.10;61.03;92498.38;4978737;28;20034;-86
2022/02/18 10:14:59;;;;;;;87.93;31.98;;;;;;;9.58;58.79;92526.34;4978599;28;20065;-86
2022/02/18 10:17:47;;;;;;;92.68;31.48;;;;;;;10.17;56.45;92519.09;4980293;28;20492;-86
2022/02/18 10:20:22;;;;;;;83.93;30.70;;;;;;;8.86;59.64;92515.81;4979128;28;20034;-85
2022/02/18 10:22:59;;;;;;;94.55;32.97;;;;;;;8.09;61.58;92498.84;4978783;28;20042;-86
2022/02/18 10:25:30;;;;;;;98.65;31.08;;;;;;;8.71;60.90;92519.31;4978658;28;20045;-88
2022/02/18 10:27:57;;;;;;;77.85;30.50;;;;;;;8.78;60.85;92519.81;5012296;28;20124;-90
2022/02/18 10:30:28;;;;;;;88.32;30.67;;;;;;;9.08;59.33;92512.75;4975503;28;20023;-86
2022/02/18 10:33:12;;;;;;;71.63;26.52;;;;;;;8.19;62.69;92516.25;4958737;28;20121;-85
2022/02/18 10:35:39;;;;;;;75.05;26.67;;;;;;;8.53;60.82;92505.09;4978394;28;20030;-86
2022/02/18 10:38:06;;;;;;;77.38;29.27;;;;;;;7.92;62.60;92488.78;4982338;28;20034;-86
2022/02/18 10:40:49;;;;;;;89.10;31.08;;;;;;;8.00;63.08;92508.28;4962414;28;20562;-86
2022/02/18 10:43:18;;;;;;;80.47;28.63;;;;;;;7.86;64.16;92515.16;4978412;28;20069;-86
2022/02/18 10:46:10;;;;;;;90.43;34.17;;;;;;;8.54;62.38;92524.94;4962435;28;20046;-86
2022/02/18 10:48:48;;;;;;;96.88;32.70;;;;;;;9.11;60.30;92497.28;4958043;28;20083;-85
2022/02/18 10:51:19;;;;;;;77.95;25.70;;;;;;;8.69;60.60;92479.66;4960070;28;20034;-85
2022/02/18 10:53:50;;;;;;;84.70;32.63;;;;;;;8.52;62.18;92501.72;4975507;28;20039;-86
2022/02/18 10:56:20;;;;;;;83.38;32.80;;;;;;;8.99;60.31;92509.97;4960990;28;20043;-85
2022/02/18 10:58:50;;;;;;;86.70;31.15;;;;;;;9.68;58.52;92487.03;4962585;28;20046;-85
2022/02/18 11:01:21;;;;;;;85.20;32.85;;;;;;;9.89;56.84;92498.00;4974790;28;20134;-86
2022/02/18 11:04:01;;;;;;;83.20;30.15;;;;;;;9.75;57.45;92494.53;4985131;28;20030;-86
2022/02/18 11:06:32;;;;;;;94.68;32.45;;;;;;;8.57;61.96;92498.28;4999834;28;20038;-85
2022/02/18 11:09:11;;;;;;;85.50;32.30;;;;;;;9.75;58.74;92487.47;4987954;28;20090;-85
2022/02/18 11:11:44;;;;;;;76.25;29.23;;;;;;;8.45;62.82;92498.66;4967374;28;20116;-87
2022/02/18 11:14:18;;;;;;;85.95;33.47;;;;;;;7.84;64.80;92478.91;4996513;28;20045;-94
2022/02/18 11:17:35;;;;;;;94.03;35.50;;;;;;;7.78;64.13;92440.91;4970098;28;20129;-95
2022/02/18 11:29:13;;;;;;;;;;;;;;;;;;;;;
2022/02/18 11:51:43;;;;;;;99.40;33.83;;;;;;;8.33;64.15;92478.09;4944612;22;20137;-77
2022/02/18 11:54:24;;;;;;;97.53;34.08;;;;;;;8.78;63.70;92475.44;5015432;28;20041;-77
2022/02/18 11:56:57;;;;;;;92.95;34.50;;;;;;;9.01;63.54;92481.75;5026101;28;20088;-77
2022/02/18 11:59:41;;;;;;;89.85;33.70;;;;;;;8.95;61.92;92475.78;5003251;28;20041;-77
2022/02/18 12:02:09;;;;;;;99.32;36.58;;;;;;;9.28;62.01;92491.66;5026736;28;20540;-77
2022/02/18 12:04:36;;;;;;;103.53;34.20;;;;;;;9.15;63.09;92487.88;5011487;28;20117;-77
2022/02/18 12:07:20;;;;;;;92.70;32.83;;;;;;;9.20;62.43;92479.19;5025740;28;20041;-78
2022/02/18 12:09:49;;;;;;;86.38;31.27;;;;;;;9.15;61.52;92468.81;5012791;28;20379;-77
2022/02/18 12:12:35;;;;;;;89.57;33.15;;;;;;;9.08;62.80;92481.41;5002885;28;20041;-77
2022/02/18 12:15:11;;;;;;;98.88;34.78;;;;;;;8.90;62.75;92481.06;5021794;28;20041;-77
2022/02/18 12:17:48;;;;;;;81.22;31.38;;;;;;;8.92;62.63;92483.41;5012313;28;20038;-77
2022/02/18 12:20:17;;;;;;;73.28;28.20;;;;;;;8.99;62.06;92472.63;5031443;28;20038;-78
2022/02/18 12:22:43;;;;;;;94.38;35.47;;;;;;;9.13;62.07;92470.91;5012527;28;20520;-77
2022/02/18 12:25:25;;;;;;;93.60;34.85;;;;;;;8.69;63.29;92479.66;5014842;28;20471;-77
2022/02/18 12:27:53;;;;;;;90.63;32.63;;;;;;;9.02;62.60;92466.84;5022709;28;20033;-77
2022/02/18 12:30:22;;;;;;;92.88;35.10;;;;;;;9.30;62.71;92476.50;5012701;28;20044;-78
2022/02/18 12:32:48;;;;;;;95.88;35.35;;;;;;;9.38;61.40;92480.31;5031274;28;20049;-78
2022/02/18 12:35:17;;;;;;;99.82;34.95;;;;;;;8.98;62.85;92476.28;5009500;28;20100;-77
2022/02/18 12:37:43;;;;;;;99.15;35.38;;;;;;;9.21;63.10;92483.38;5030233;28;20056;-78
2022/02/18 12:40:17;;;;;;;100.72;37.88;;;;;;;8.72;63.50;92473.91;4998143;28;20034;-78
2022/02/18 12:42:43;;;;;;;95.53;36.08;;;;;;;8.91;62.81;92466.94;4993108;28;20518;-79
2022/02/18 12:45:11;;;;;;;101.18;35.80;;;;;;;9.01;62.80;92449.63;5004757;28;20127;-77
2022/02/18 12:47:39;;;;;;;94.05;35.08;;;;;;;9.19;62.59;92461.97;5006813;28;20128;-78
2022/02/18 12:50:13;;;;;;;88.63;33.60;;;;;;;8.99;63.07;92452.53;5031005;28;20402;-78
2022/02/18 12:52:41;;;;;;;98.85;36.50;;;;;;;9.35;61.77;92446.91;4985207;28;20448;-78
2022/02/18 12:55:09;;;;;;;97.03;35.30;;;;;;;9.37;61.40;92448.19;4987025;28;20419;-77
2022/02/18 12:57:41;;;;;;;94.28;35.08;;;;;;;9.23;62.86;92442.09;4991425;28;20053;-77
2022/02/18 13:00:13;;;;;;;102.30;36.22;;;;;;;9.39;61.76;92432.25;4989161;28;20042;-77
2022/02/18 13:02:41;;;;;;;100.57;35.92;;;;;;;9.08;63.02;92439.63;4991441;28;20121;-78
2022/02/18 13:05:16;;;;;;;91.53;35.20;;;;;;;9.02;64.05;92435.53;4980664;28;20042;-78
2022/02/18 13:07:58;;;;;;;100.88;36.47;;;;;;;8.27;64.47;92431.47;4973192;28;20046;-77
2022/02/18 13:10:39;;;;;;;96.20;34.67;;;;;;;8.25;65.88;92425.75;4981040;28;20262;-77
2022/02/18 13:13:13;;;;;;;92.03;32.63;;;;;;;8.33;64.94;92420.72;4991929;28;20247;-77
2022/02/18 13:15:42;;;;;;;96.50;36.25;;;;;;;8.64;65.19;92427.53;4960467;28;20615;-77
2022/02/18 13:18:11;;;;;;;99.35;35.85;;;;;;;8.70;64.83;92424.59;4988144;28;20053;-77
2022/02/18 13:20:46;;;;;;;86.82;33.67;;;;;;;8.35;66.35;92412.59;4988018;28;20404;-78
2022/02/18 13:23:21;;;;;;;99.18;32.78;;;;;;;8.62;65.09;92427.03;4989813;28;20503;-77
2022/02/18 13:25:51;;;;;;;91.50;29.92;;;;;;;8.25;66.67;92421.28;4975282;28;20050;-77
2022/02/18 13:28:25;;;;;;;98.05;34.22;;;;;;;8.38;65.59;92417.28;4976424;28;20019;-77